Pagrindinis puslapis
METAR-TAF:

METAR-TAF

Oro uostai :

Damaskas, Sirija

platuma: 33-25N, ilguma: 036-31E, Aukštis: 608 m

Dabartinis oras

Ataskaita buvo paskelbta 1 valandą ir 0 minutes, ne 05:00 UTC
Vėjas 20 kt iš Pietų/Pietvakarių
Temperatūra 11°C
Drėgmė 87%
Slėgis 1009 hPa
Matomumas 10 km arba daugiau
Išsisklaidę debesys ne aukštis 3000 ft
Su prošvaistėmis ne aukštis 10000 ft

METAR: OSDI 010500Z 21020KT 9999 SCT030 BKN100 11/09 Q1009

Laikas: 09:00 (06:00 UTC)

Prognozė

Ataskaita buvo paskelbta 1 valandą ir 0 minutes, ne 05:00 UTC
Prognozė galioja nuo 01 metu 06 UTC su 02 metu 12 UTC
Vėjas 10 kt iš Pietvakarių
Matomumas 10 km arba daugiau
Mažai debesys ne aukštis 3000 ft
Išsisklaidę debesys ne aukštis 10000 ft
Laikinai
nuo 01 metu 06 UTC su 01 metu 12 UTC
Vėjas 15 kt iš Vakarų/Pietvakarių su gūsio iki 25 kt
Matomumas: 8000 m
Mažai debesys ne aukštis 2600 ft
Išsisklaidę debesys ne aukštis 3000 ft
Su prošvaistėmis ne aukštis 9000 ft
lietus

TAF: OSDI 010500Z 0106/0212 22010KT 9999 FEW030 SCT100 TEMPO 0106/0112 24015G25KT 8000 RA FEW026 CB SCT030 BKN090

Orai ataskaitas ir orų prognozės (METAR, TAF).

turimą stotys yra geltonos ir raudonos taškus žemėlapyje.

Perkelti pele per norėdami pamatyti stoties vardą.

Tada spustelėkite, norėdami matyti oro stebėjimo ir prognozės.

Norėdami pakeisti žemėlapį: spustelėkite ant žalios mygtukų su juodo kryžiaus žemyn,; žalią mygtuką su brūkšneliu, jei norite nutolinti; arba žalių rodyklių gretimoms žemėlapius.


METAR-TAF: